sensor_id;sensor_type;location;lat;lon;timestamp;temperature;humidity
6988;DHT22;3534;49.960;8.018;2023-04-24T00:00:25;13.60;99.90
6988;DHT22;3534;49.960;8.018;2023-04-24T00:02:52;13.70;99.90
6988;DHT22;3534;49.960;8.018;2023-04-24T00:05:22;13.70;99.90
6988;DHT22;3534;49.960;8.018;2023-04-24T00:07:49;13.60;99.90
6988;DHT22;3534;49.960;8.018;2023-04-24T00:10:19;13.70;99.90
6988;DHT22;3534;49.960;8.018;2023-04-24T00:12:46;13.60;99.90
6988;DHT22;3534;49.960;8.018;2023-04-24T00:15:12;13.60;99.90
6988;DHT22;3534;49.960;8.018;2023-04-24T00:17:39;13.60;99.90
6988;DHT22;3534;49.960;8.018;2023-04-24T00:20:06;13.60;99.90
6988;DHT22;3534;49.960;8.018;2023-04-24T00:22:33;13.60;99.90
6988;DHT22;3534;49.960;8.018;2023-04-24T00:25:00;13.60;99.90
6988;DHT22;3534;49.960;8.018;2023-04-24T00:27:28;13.50;99.90
6988;DHT22;3534;49.960;8.018;2023-04-24T00:29:55;13.50;99.90
6988;DHT22;3534;49.960;8.018;2023-04-24T00:32:21;13.40;99.90
6988;DHT22;3534;49.960;8.018;2023-04-24T00:34:48;13.40;99.90
6988;DHT22;3534;49.960;8.018;2023-04-24T00:37:15;13.40;99.90
6988;DHT22;3534;49.960;8.018;2023-04-24T00:39:41;13.40;99.90
6988;DHT22;3534;49.960;8.018;2023-04-24T00:42:08;13.40;99.90
6988;DHT22;3534;49.960;8.018;2023-04-24T00:44:36;13.40;99.90
6988;DHT22;3534;49.960;8.018;2023-04-24T00:47:03;13.40;99.90
6988;DHT22;3534;49.960;8.018;2023-04-24T00:49:30;13.30;99.90
6988;DHT22;3534;49.960;8.018;2023-04-24T00:51:57;13.30;99.90
6988;DHT22;3534;49.960;8.018;2023-04-24T00:54:24;13.30;99.90
6988;DHT22;3534;49.960;8.018;2023-04-24T00:56:51;13.30;99.90
6988;DHT22;3534;49.960;8.018;2023-04-24T00:59:18;13.30;99.90
6988;DHT22;3534;49.960;8.018;2023-04-24T01:01:46;13.30;99.90
6988;DHT22;3534;49.960;8.018;2023-04-24T01:04:14;13.30;99.90
6988;DHT22;3534;49.960;8.018;2023-04-24T01:06:41;13.30;99.90
6988;DHT22;3534;49.960;8.018;2023-04-24T01:09:10;13.30;99.90
6988;DHT22;3534;49.960;8.018;2023-04-24T01:11:38;13.30;99.90
6988;DHT22;3534;49.960;8.018;2023-04-24T01:14:06;13.30;99.90
6988;DHT22;3534;49.960;8.018;2023-04-24T01:16:32;13.20;99.90
6988;DHT22;3534;49.960;8.018;2023-04-24T01:19:01;13.20;99.90
6988;DHT22;3534;49.960;8.018;2023-04-24T01:21:30;13.20;99.90
6988;DHT22;3534;49.960;8.018;2023-04-24T01:24:02;13.20;99.90
6988;DHT22;3534;49.960;8.018;2023-04-24T01:26:29;13.20;99.90
6988;DHT22;3534;49.960;8.018;2023-04-24T01:28:56;13.10;99.90
6988;DHT22;3534;49.960;8.018;2023-04-24T01:31:23;13.10;99.90
6988;DHT22;3534;49.960;8.018;2023-04-24T01:33:50;13.10;99.90
6988;DHT22;3534;49.960;8.018;2023-04-24T01:36:18;13.10;99.90
6988;DHT22;3534;49.960;8.018;2023-04-24T01:38:45;13.10;99.90
6988;DHT22;3534;49.960;8.018;2023-04-24T01:41:13;13.00;99.90
6988;DHT22;3534;49.960;8.018;2023-04-24T01:43:39;13.00;99.90
6988;DHT22;3534;49.960;8.018;2023-04-24T01:46:06;13.00;99.90
6988;DHT22;3534;49.960;8.018;2023-04-24T01:48:33;13.10;99.90
6988;DHT22;3534;49.960;8.018;2023-04-24T01:51:00;13.00;99.90
6988;DHT22;3534;49.960;8.018;2023-04-24T01:53:27;13.10;99.90
6988;DHT22;3534;49.960;8.018;2023-04-24T01:55:53;13.00;99.90
6988;DHT22;3534;49.960;8.018;2023-04-24T01:58:27;13.00;99.90
6988;DHT22;3534;49.960;8.018;2023-04-24T02:00:56;13.00;99.90
6988;DHT22;3534;49.960;8.018;2023-04-24T02:03:23;13.00;99.90
6988;DHT22;3534;49.960;8.018;2023-04-24T02:05:49;13.00;99.90
6988;DHT22;3534;49.960;8.018;2023-04-24T02:08:16;13.00;99.90
6988;DHT22;3534;49.960;8.018;2023-04-24T02:10:43;13.00;99.90
6988;DHT22;3534;49.960;8.018;2023-04-24T02:13:10;13.00;99.90
6988;DHT22;3534;49.960;8.018;2023-04-24T02:15:38;13.00;99.90
6988;DHT22;3534;49.960;8.018;2023-04-24T02:18:05;13.00;99.90
6988;DHT22;3534;49.960;8.018;2023-04-24T02:20:32;13.00;99.90
6988;DHT22;3534;49.960;8.018;2023-04-24T02:22:59;13.00;99.90
6988;DHT22;3534;49.960;8.018;2023-04-24T02:25:26;13.00;99.90
6988;DHT22;3534;49.960;8.018;2023-04-24T02:27:52;13.00;99.90
6988;DHT22;3534;49.960;8.018;2023-04-24T02:30:19;13.00;99.90
6988;DHT22;3534;49.960;8.018;2023-04-24T02:32:47;13.00;99.90
6988;DHT22;3534;49.960;8.018;2023-04-24T02:35:14;13.00;99.90
6988;DHT22;3534;49.960;8.018;2023-04-24T02:37:41;13.00;99.90
6988;DHT22;3534;49.960;8.018;2023-04-24T02:40:09;13.00;99.90
6988;DHT22;3534;49.960;8.018;2023-04-24T02:42:35;13.10;99.90
6988;DHT22;3534;49.960;8.018;2023-04-24T02:45:03;13.10;99.90
6988;DHT22;3534;49.960;8.018;2023-04-24T02:47:30;13.10;99.90
6988;DHT22;3534;49.960;8.018;2023-04-24T02:49:58;13.10;99.90
6988;DHT22;3534;49.960;8.018;2023-04-24T02:52:25;13.10;99.90
6988;DHT22;3534;49.960;8.018;2023-04-24T02:54:51;13.10;99.90
6988;DHT22;3534;49.960;8.018;2023-04-24T02:57:19;13.10;99.90
6988;DHT22;3534;49.960;8.018;2023-04-24T02:59:45;13.10;99.90
6988;DHT22;3534;49.960;8.018;2023-04-24T03:02:12;13.10;99.90
6988;DHT22;3534;49.960;8.018;2023-04-24T03:04:39;13.00;99.90
6988;DHT22;3534;49.960;8.018;2023-04-24T03:07:09;13.00;99.90
6988;DHT22;3534;49.960;8.018;2023-04-24T03:09:36;13.00;99.90
6988;DHT22;3534;49.960;8.018;2023-04-24T03:12:02;13.00;99.90
6988;DHT22;3534;49.960;8.018;2023-04-24T03:14:29;13.10;99.90
6988;DHT22;3534;49.960;8.018;2023-04-24T03:16:56;13.10;99.90
6988;DHT22;3534;49.960;8.018;2023-04-24T03:19:23;13.10;99.90
6988;DHT22;3534;49.960;8.018;2023-04-24T03:21:50;13.10;99.90
6988;DHT22;3534;49.960;8.018;2023-04-24T03:24:18;13.10;99.90
6988;DHT22;3534;49.960;8.018;2023-04-24T03:26:46;13.10;99.90
6988;DHT22;3534;49.960;8.018;2023-04-24T03:29:12;13.00;99.90
6988;DHT22;3534;49.960;8.018;2023-04-24T03:31:39;13.00;99.90
6988;DHT22;3534;49.960;8.018;2023-04-24T03:34:06;13.00;99.90
6988;DHT22;3534;49.960;8.018;2023-04-24T03:36:32;13.00;99.90
6988;DHT22;3534;49.960;8.018;2023-04-24T03:38:59;13.00;99.90
6988;DHT22;3534;49.960;8.018;2023-04-24T03:41:27;13.00;99.90
6988;DHT22;3534;49.960;8.018;2023-04-24T03:43:54;12.90;99.90
6988;DHT22;3534;49.960;8.018;2023-04-24T03:46:20;12.80;99.90
6988;DHT22;3534;49.960;8.018;2023-04-24T03:48:47;12.70;99.90
6988;DHT22;3534;49.960;8.018;2023-04-24T03:51:14;12.70;99.90
6988;DHT22;3534;49.960;8.018;2023-04-24T03:53:40;12.60;99.90
6988;DHT22;3534;49.960;8.018;2023-04-24T03:56:07;12.50;99.90
6988;DHT22;3534;49.960;8.018;2023-04-24T03:58:35;12.50;99.90
6988;DHT22;3534;49.960;8.018;2023-04-24T04:01:02;12.40;99.90
6988;DHT22;3534;49.960;8.018;2023-04-24T04:03:29;12.50;99.90
6988;DHT22;3534;49.960;8.018;2023-04-24T04:05:55;12.40;99.90
6988;DHT22;3534;49.960;8.018;2023-04-24T04:08:22;12.30;99.90
6988;DHT22;3534;49.960;8.018;2023-04-24T04:10:49;12.20;99.90
6988;DHT22;3534;49.960;8.018;2023-04-24T04:13:15;12.10;99.90
6988;DHT22;3534;49.960;8.018;2023-04-24T04:15:43;12.10;99.90
6988;DHT22;3534;49.960;8.018;2023-04-24T04:18:10;12.00;99.90
6988;DHT22;3534;49.960;8.018;2023-04-24T04:20:37;11.90;99.90
6988;DHT22;3534;49.960;8.018;2023-04-24T04:23:03;11.90;99.90
6988;DHT22;3534;49.960;8.018;2023-04-24T04:25:30;11.80;99.90
6988;DHT22;3534;49.960;8.018;2023-04-24T04:27:57;11.80;99.90
6988;DHT22;3534;49.960;8.018;2023-04-24T04:30:25;11.70;99.90
6988;DHT22;3534;49.960;8.018;2023-04-24T04:32:53;11.70;99.90
6988;DHT22;3534;49.960;8.018;2023-04-24T04:35:19;11.60;99.90
6988;DHT22;3534;49.960;8.018;2023-04-24T04:37:46;11.50;99.90
6988;DHT22;3534;49.960;8.018;2023-04-24T04:40:13;11.40;99.90
6988;DHT22;3534;49.960;8.018;2023-04-24T04:42:39;11.40;99.90
6988;DHT22;3534;49.960;8.018;2023-04-24T04:45:07;11.30;99.90
6988;DHT22;3534;49.960;8.018;2023-04-24T04:47:37;11.30;99.90
6988;DHT22;3534;49.960;8.018;2023-04-24T04:50:07;11.30;99.90
6988;DHT22;3534;49.960;8.018;2023-04-24T04:52:33;11.30;99.90
6988;DHT22;3534;49.960;8.018;2023-04-24T04:55:00;11.20;99.90
6988;DHT22;3534;49.960;8.018;2023-04-24T04:57:27;11.30;99.90
6988;DHT22;3534;49.960;8.018;2023-04-24T04:59:53;11.30;99.90
6988;DHT22;3534;49.960;8.018;2023-04-24T05:02:20;11.30;99.90
6988;DHT22;3534;49.960;8.018;2023-04-24T05:04:47;11.30;99.90
6988;DHT22;3534;49.960;8.018;2023-04-24T05:07:15;11.30;99.90
6988;DHT22;3534;49.960;8.018;2023-04-24T05:09:41;11.40;99.90
6988;DHT22;3534;49.960;8.018;2023-04-24T05:12:09;11.40;99.90
6988;DHT22;3534;49.960;8.018;2023-04-24T05:14:35;11.40;99.90
6988;DHT22;3534;49.960;8.018;2023-04-24T05:17:02;11.50;99.90
6988;DHT22;3534;49.960;8.018;2023-04-24T05:19:29;11.50;99.90
6988;DHT22;3534;49.960;8.018;2023-04-24T05:21:58;11.50;99.90
6988;DHT22;3534;49.960;8.018;2023-04-24T05:24:26;11.50;99.90
6988;DHT22;3534;49.960;8.018;2023-04-24T05:26:52;11.50;99.90
6988;DHT22;3534;49.960;8.018;2023-04-24T05:29:19;11.40;99.90
6988;DHT22;3534;49.960;8.018;2023-04-24T05:31:46;11.30;99.90
6988;DHT22;3534;49.960;8.018;2023-04-24T05:34:13;11.30;99.90
6988;DHT22;3534;49.960;8.018;2023-04-24T05:36:41;11.30;99.90
6988;DHT22;3534;49.960;8.018;2023-04-24T05:39:08;11.30;99.90
6988;DHT22;3534;49.960;8.018;2023-04-24T05:41:36;11.40;99.90
6988;DHT22;3534;49.960;8.018;2023-04-24T05:44:02;11.40;99.90
6988;DHT22;3534;49.960;8.018;2023-04-24T05:46:29;11.40;99.90
6988;DHT22;3534;49.960;8.018;2023-04-24T05:48:56;11.50;99.90
6988;DHT22;3534;49.960;8.018;2023-04-24T05:51:23;11.50;99.90
6988;DHT22;3534;49.960;8.018;2023-04-24T05:53:49;11.50;99.90
6988;DHT22;3534;49.960;8.018;2023-04-24T05:56:16;11.60;99.90
6988;DHT22;3534;49.960;8.018;2023-04-24T05:58:45;11.60;99.90
6988;DHT22;3534;49.960;8.018;2023-04-24T06:01:12;11.60;99.90
6988;DHT22;3534;49.960;8.018;2023-04-24T06:03:40;11.60;99.90
6988;DHT22;3534;49.960;8.018;2023-04-24T06:06:07;11.70;99.90
6988;DHT22;3534;49.960;8.018;2023-04-24T06:08:34;11.70;99.90
6988;DHT22;3534;49.960;8.018;2023-04-24T06:11:01;11.80;99.90
6988;DHT22;3534;49.960;8.018;2023-04-24T06:13:28;11.90;99.90
6988;DHT22;3534;49.960;8.018;2023-04-24T06:15:56;11.90;99.90
6988;DHT22;3534;49.960;8.018;2023-04-24T06:18:23;11.90;99.90
6988;DHT22;3534;49.960;8.018;2023-04-24T06:20:49;11.90;99.90
6988;DHT22;3534;49.960;8.018;2023-04-24T06:23:17;11.90;99.90
6988;DHT22;3534;49.960;8.018;2023-04-24T06:25:43;12.00;99.90
6988;DHT22;3534;49.960;8.018;2023-04-24T06:28:10;12.00;99.90
6988;DHT22;3534;49.960;8.018;2023-04-24T06:30:37;12.00;99.90
6988;DHT22;3534;49.960;8.018;2023-04-24T06:33:05;12.10;99.90
6988;DHT22;3534;49.960;8.018;2023-04-24T06:35:32;12.10;99.90
6988;DHT22;3534;49.960;8.018;2023-04-24T06:37:58;12.00;99.90
6988;DHT22;3534;49.960;8.018;2023-04-24T06:40:25;12.00;99.90
6988;DHT22;3534;49.960;8.018;2023-04-24T06:42:51;12.00;99.90
6988;DHT22;3534;49.960;8.018;2023-04-24T06:45:18;12.00;99.90
6988;DHT22;3534;49.960;8.018;2023-04-24T06:47:45;12.00;99.90
6988;DHT22;3534;49.960;8.018;2023-04-24T06:50:13;11.90;99.90
6988;DHT22;3534;49.960;8.018;2023-04-24T06:52:40;11.90;99.90
6988;DHT22;3534;49.960;8.018;2023-04-24T06:55:07;11.90;99.90
6988;DHT22;3534;49.960;8.018;2023-04-24T06:57:35;11.90;99.90
6988;DHT22;3534;49.960;8.018;2023-04-24T07:00:02;11.90;99.90
6988;DHT22;3534;49.960;8.018;2023-04-24T07:02:30;11.90;99.90
6988;DHT22;3534;49.960;8.018;2023-04-24T07:04:57;12.00;99.90
6988;DHT22;3534;49.960;8.018;2023-04-24T07:07:25;12.00;99.90
6988;DHT22;3534;49.960;8.018;2023-04-24T07:09:51;12.00;99.90
6988;DHT22;3534;49.960;8.018;2023-04-24T07:12:19;12.10;99.90
6988;DHT22;3534;49.960;8.018;2023-04-24T07:14:47;12.20;99.90
6988;DHT22;3534;49.960;8.018;2023-04-24T07:17:13;12.20;99.90
6988;DHT22;3534;49.960;8.018;2023-04-24T07:19:40;12.20;99.90
6988;DHT22;3534;49.960;8.018;2023-04-24T07:22:07;12.30;99.90
6988;DHT22;3534;49.960;8.018;2023-04-24T07:24:35;12.30;99.90
6988;DHT22;3534;49.960;8.018;2023-04-24T07:27:02;12.30;99.90
6988;DHT22;3534;49.960;8.018;2023-04-24T07:29:29;12.40;99.90
6988;DHT22;3534;49.960;8.018;2023-04-24T07:31:55;12.40;99.90
6988;DHT22;3534;49.960;8.018;2023-04-24T07:34:22;12.50;99.90
6988;DHT22;3534;49.960;8.018;2023-04-24T07:36:49;12.50;99.90
6988;DHT22;3534;49.960;8.018;2023-04-24T07:39:16;12.50;99.90
6988;DHT22;3534;49.960;8.018;2023-04-24T07:41:44;12.50;99.90
6988;DHT22;3534;49.960;8.018;2023-04-24T07:44:11;12.50;99.90
6988;DHT22;3534;49.960;8.018;2023-04-24T07:46:37;12.50;99.90
6988;DHT22;3534;49.960;8.018;2023-04-24T07:49:04;12.60;99.90
6988;DHT22;3534;49.960;8.018;2023-04-24T07:51:31;12.70;99.90
6988;DHT22;3534;49.960;8.018;2023-04-24T07:53:59;12.70;99.90
6988;DHT22;3534;49.960;8.018;2023-04-24T07:56:25;12.80;99.90
6988;DHT22;3534;49.960;8.018;2023-04-24T07:58:53;12.80;99.90
6988;DHT22;3534;49.960;8.018;2023-04-24T08:01:20;12.90;99.90
6988;DHT22;3534;49.960;8.018;2023-04-24T08:03:47;12.90;99.90
6988;DHT22;3534;49.960;8.018;2023-04-24T08:06:13;12.90;99.90
6988;DHT22;3534;49.960;8.018;2023-04-24T08:08:40;12.90;99.90
6988;DHT22;3534;49.960;8.018;2023-04-24T08:11:07;12.90;99.90
6988;DHT22;3534;49.960;8.018;2023-04-24T08:13:33;13.00;99.90
6988;DHT22;3534;49.960;8.018;2023-04-24T08:16:01;12.90;99.90
6988;DHT22;3534;49.960;8.018;2023-04-24T08:18:28;12.90;99.90
6988;DHT22;3534;49.960;8.018;2023-04-24T08:20:55;12.80;99.90
6988;DHT22;3534;49.960;8.018;2023-04-24T08:23:26;12.70;99.90
6988;DHT22;3534;49.960;8.018;2023-04-24T08:25:54;12.60;99.90
6988;DHT22;3534;49.960;8.018;2023-04-24T08:28:21;12.50;99.90
6988;DHT22;3534;49.960;8.018;2023-04-24T08:30:48;12.50;99.90
6988;DHT22;3534;49.960;8.018;2023-04-24T08:33:21;12.40;99.90
6988;DHT22;3534;49.960;8.018;2023-04-24T08:35:48;12.50;99.90
6988;DHT22;3534;49.960;8.018;2023-04-24T08:38:15;12.50;99.90
6988;DHT22;3534;49.960;8.018;2023-04-24T08:40:41;12.60;99.90
6988;DHT22;3534;49.960;8.018;2023-04-24T08:43:15;12.60;99.90
6988;DHT22;3534;49.960;8.018;2023-04-24T08:45:42;12.70;99.90
6988;DHT22;3534;49.960;8.018;2023-04-24T08:48:09;12.70;99.90
6988;DHT22;3534;49.960;8.018;2023-04-24T08:50:38;12.80;99.90
6988;DHT22;3534;49.960;8.018;2023-04-24T08:53:08;12.80;99.90
6988;DHT22;3534;49.960;8.018;2023-04-24T08:55:35;12.80;99.90
6988;DHT22;3534;49.960;8.018;2023-04-24T08:58:03;12.90;99.90
6988;DHT22;3534;49.960;8.018;2023-04-24T09:00:31;12.90;99.90
6988;DHT22;3534;49.960;8.018;2023-04-24T09:03:00;12.80;99.90
6988;DHT22;3534;49.960;8.018;2023-04-24T09:05:27;12.70;99.90
6988;DHT22;3534;49.960;8.018;2023-04-24T09:07:56;12.80;99.90
6988;DHT22;3534;49.960;8.018;2023-04-24T09:10:24;12.80;99.90
6988;DHT22;3534;49.960;8.018;2023-04-24T09:12:51;12.80;99.90
6988;DHT22;3534;49.960;8.018;2023-04-24T09:15:18;12.80;99.90
6988;DHT22;3534;49.960;8.018;2023-04-24T09:17:46;12.90;99.90
6988;DHT22;3534;49.960;8.018;2023-04-24T09:20:13;12.90;99.90
6988;DHT22;3534;49.960;8.018;2023-04-24T09:22:40;12.90;99.90
6988;DHT22;3534;49.960;8.018;2023-04-24T09:25:10;12.90;99.90
6988;DHT22;3534;49.960;8.018;2023-04-24T09:27:41;12.90;99.90
6988;DHT22;3534;49.960;8.018;2023-04-24T09:30:09;13.00;99.90
6988;DHT22;3534;49.960;8.018;2023-04-24T09:32:36;13.00;99.90
6988;DHT22;3534;49.960;8.018;2023-04-24T09:35:08;13.00;99.90
6988;DHT22;3534;49.960;8.018;2023-04-24T09:37:36;13.00;99.90
6988;DHT22;3534;49.960;8.018;2023-04-24T09:40:15;13.00;99.90
6988;DHT22;3534;49.960;8.018;2023-04-24T09:42:46;12.90;99.90
6988;DHT22;3534;49.960;8.018;2023-04-24T09:45:13;12.80;99.90
6988;DHT22;3534;49.960;8.018;2023-04-24T09:47:40;12.80;99.90
6988;DHT22;3534;49.960;8.018;2023-04-24T09:50:12;12.80;99.90
6988;DHT22;3534;49.960;8.018;2023-04-24T09:52:43;12.80;99.90
6988;DHT22;3534;49.960;8.018;2023-04-24T09:55:19;12.80;99.90
6988;DHT22;3534;49.960;8.018;2023-04-24T09:57:53;12.80;99.90
6988;DHT22;3534;49.960;8.018;2023-04-24T10:00:24;12.80;99.90
6988;DHT22;3534;49.960;8.018;2023-04-24T10:03:04;12.90;99.90
6988;DHT22;3534;49.960;8.018;2023-04-24T10:05:32;12.90;99.90
6988;DHT22;3534;49.960;8.018;2023-04-24T10:08:03;12.90;99.90
6988;DHT22;3534;49.960;8.018;2023-04-24T10:10:33;12.90;99.90
6988;DHT22;3534;49.960;8.018;2023-04-24T10:13:00;12.90;99.90
6988;DHT22;3534;49.960;8.018;2023-04-24T10:15:27;12.90;99.90
6988;DHT22;3534;49.960;8.018;2023-04-24T10:17:54;12.80;99.90
6988;DHT22;3534;49.960;8.018;2023-04-24T10:20:22;12.70;99.90
6988;DHT22;3534;49.960;8.018;2023-04-24T10:22:50;12.70;99.90
6988;DHT22;3534;49.960;8.018;2023-04-24T10:25:19;12.70;99.90
6988;DHT22;3534;49.960;8.018;2023-04-24T10:27:49;12.70;99.90
6988;DHT22;3534;49.960;8.018;2023-04-24T10:30:17;12.70;99.90
6988;DHT22;3534;49.960;8.018;2023-04-24T10:32:44;12.60;99.90
6988;DHT22;3534;49.960;8.018;2023-04-24T10:35:13;12.70;99.90
6988;DHT22;3534;49.960;8.018;2023-04-24T10:37:42;12.70;99.90
6988;DHT22;3534;49.960;8.018;2023-04-24T10:40:11;12.70;99.90
6988;DHT22;3534;49.960;8.018;2023-04-24T10:42:40;12.70;99.90
6988;DHT22;3534;49.960;8.018;2023-04-24T10:45:16;12.60;99.90
6988;DHT22;3534;49.960;8.018;2023-04-24T10:47:50;12.60;99.90
6988;DHT22;3534;49.960;8.018;2023-04-24T10:50:17;12.50;99.90
6988;DHT22;3534;49.960;8.018;2023-04-24T10:52:44;12.50;99.90
6988;DHT22;3534;49.960;8.018;2023-04-24T10:55:12;12.50;99.90
6988;DHT22;3534;49.960;8.018;2023-04-24T10:57:39;12.40;99.90
6988;DHT22;3534;49.960;8.018;2023-04-24T11:00:14;12.50;99.90
6988;DHT22;3534;49.960;8.018;2023-04-24T11:02:46;12.50;99.90
6988;DHT22;3534;49.960;8.018;2023-04-24T11:05:19;12.50;99.90
6988;DHT22;3534;49.960;8.018;2023-04-24T11:08:10;12.50;99.90
6988;DHT22;3534;49.960;8.018;2023-04-24T11:10:39;12.60;99.90
6988;DHT22;3534;49.960;8.018;2023-04-24T11:13:06;12.60;99.90
6988;DHT22;3534;49.960;8.018;2023-04-24T11:15:35;12.70;99.90
6988;DHT22;3534;49.960;8.018;2023-04-24T11:18:01;12.80;99.90
6988;DHT22;3534;49.960;8.018;2023-04-24T11:20:28;12.90;99.90
6988;DHT22;3534;49.960;8.018;2023-04-24T11:22:57;12.90;99.90
6988;DHT22;3534;49.960;8.018;2023-04-24T11:25:30;13.00;99.90
6988;DHT22;3534;49.960;8.018;2023-04-24T11:28:03;13.00;99.90
6988;DHT22;3534;49.960;8.018;2023-04-24T11:30:31;13.10;99.90
6988;DHT22;3534;49.960;8.018;2023-04-24T11:33:05;13.20;99.90
6988;DHT22;3534;49.960;8.018;2023-04-24T11:35:35;13.20;99.90
6988;DHT22;3534;49.960;8.018;2023-04-24T11:38:06;13.40;99.90
6988;DHT22;3534;49.960;8.018;2023-04-24T11:40:33;13.60;99.90
6988;DHT22;3534;49.960;8.018;2023-04-24T11:43:00;13.70;99.90
6988;DHT22;3534;49.960;8.018;2023-04-24T11:45:30;13.90;99.90
6988;DHT22;3534;49.960;8.018;2023-04-24T11:47:57;14.00;99.90
6988;DHT22;3534;49.960;8.018;2023-04-24T11:50:26;14.00;99.90
6988;DHT22;3534;49.960;8.018;2023-04-24T11:52:53;14.10;99.90
6988;DHT22;3534;49.960;8.018;2023-04-24T11:55:28;14.20;99.90
6988;DHT22;3534;49.960;8.018;2023-04-24T11:57:56;14.30;99.90
6988;DHT22;3534;49.960;8.018;2023-04-24T12:00:24;14.30;99.90
6988;DHT22;3534;49.960;8.018;2023-04-24T12:02:59;14.30;99.90
6988;DHT22;3534;49.960;8.018;2023-04-24T12:05:30;14.30;99.90
6988;DHT22;3534;49.960;8.018;2023-04-24T12:07:57;14.40;99.90
6988;DHT22;3534;49.960;8.018;2023-04-24T12:10:25;14.30;99.90
6988;DHT22;3534;49.960;8.018;2023-04-24T12:12:53;14.20;99.90
6988;DHT22;3534;49.960;8.018;2023-04-24T12:15:20;14.20;99.90
6988;DHT22;3534;49.960;8.018;2023-04-24T12:17:48;14.20;99.90
6988;DHT22;3534;49.960;8.018;2023-04-24T12:20:16;14.30;99.90
6988;DHT22;3534;49.960;8.018;2023-04-24T12:22:46;14.30;99.90
6988;DHT22;3534;49.960;8.018;2023-04-24T12:25:14;14.30;99.90
6988;DHT22;3534;49.960;8.018;2023-04-24T12:27:42;14.20;99.90
6988;DHT22;3534;49.960;8.018;2023-04-24T12:30:12;14.20;99.90
6988;DHT22;3534;49.960;8.018;2023-04-24T12:32:42;14.20;99.90
6988;DHT22;3534;49.960;8.018;2023-04-24T12:35:09;14.30;99.90
6988;DHT22;3534;49.960;8.018;2023-04-24T12:37:36;14.30;99.90
6988;DHT22;3534;49.960;8.018;2023-04-24T12:40:08;14.20;99.90
6988;DHT22;3534;49.960;8.018;2023-04-24T12:42:36;14.20;99.90
6988;DHT22;3534;49.960;8.018;2023-04-24T12:45:08;14.30;99.90
6988;DHT22;3534;49.960;8.018;2023-04-24T12:47:38;14.30;99.90
6988;DHT22;3534;49.960;8.018;2023-04-24T12:50:06;14.40;99.90
6988;DHT22;3534;49.960;8.018;2023-04-24T12:52:33;14.40;99.90
6988;DHT22;3534;49.960;8.018;2023-04-24T12:55:01;14.40;99.90
6988;DHT22;3534;49.960;8.018;2023-04-24T12:57:30;14.40;99.90
6988;DHT22;3534;49.960;8.018;2023-04-24T12:59:58;14.30;99.90
6988;DHT22;3534;49.960;8.018;2023-04-24T13:02:26;14.30;99.90
6988;DHT22;3534;49.960;8.018;2023-04-24T13:04:54;14.10;99.90
6988;DHT22;3534;49.960;8.018;2023-04-24T13:07:21;14.00;99.90
6988;DHT22;3534;49.960;8.018;2023-04-24T13:09:48;14.00;99.90
6988;DHT22;3534;49.960;8.018;2023-04-24T13:12:16;14.00;99.90
6988;DHT22;3534;49.960;8.018;2023-04-24T13:14:44;14.10;99.90
6988;DHT22;3534;49.960;8.018;2023-04-24T13:17:11;14.30;99.90
6988;DHT22;3534;49.960;8.018;2023-04-24T13:19:39;14.50;99.90
6988;DHT22;3534;49.960;8.018;2023-04-24T13:22:06;14.70;99.90
6988;DHT22;3534;49.960;8.018;2023-04-24T13:24:33;14.90;99.90
6988;DHT22;3534;49.960;8.018;2023-04-24T13:27:00;15.00;99.90
6988;DHT22;3534;49.960;8.018;2023-04-24T13:29:28;14.90;99.90
6988;DHT22;3534;49.960;8.018;2023-04-24T13:31:56;14.80;99.90
6988;DHT22;3534;49.960;8.018;2023-04-24T13:34:23;14.70;99.90
6988;DHT22;3534;49.960;8.018;2023-04-24T13:36:50;14.60;99.90
6988;DHT22;3534;49.960;8.018;2023-04-24T13:39:17;14.60;99.90
6988;DHT22;3534;49.960;8.018;2023-04-24T13:41:44;14.50;99.90
6988;DHT22;3534;49.960;8.018;2023-04-24T13:44:12;14.50;99.90
6988;DHT22;3534;49.960;8.018;2023-04-24T13:46:39;14.50;99.90
6988;DHT22;3534;49.960;8.018;2023-04-24T13:49:07;14.50;99.90
6988;DHT22;3534;49.960;8.018;2023-04-24T13:51:34;14.50;99.90
6988;DHT22;3534;49.960;8.018;2023-04-24T13:54:00;14.50;99.90
6988;DHT22;3534;49.960;8.018;2023-04-24T13:56:27;14.50;99.90
6988;DHT22;3534;49.960;8.018;2023-04-24T13:58:54;14.50;99.90
6988;DHT22;3534;49.960;8.018;2023-04-24T14:01:21;14.50;99.90
6988;DHT22;3534;49.960;8.018;2023-04-24T14:03:50;14.50;99.90
6988;DHT22;3534;49.960;8.018;2023-04-24T14:06:18;14.50;99.90
6988;DHT22;3534;49.960;8.018;2023-04-24T14:08:45;14.50;99.90
6988;DHT22;3534;49.960;8.018;2023-04-24T14:11:12;14.60;99.90
6988;DHT22;3534;49.960;8.018;2023-04-24T14:13:41;14.60;99.90
6988;DHT22;3534;49.960;8.018;2023-04-24T14:16:08;14.60;99.90
6988;DHT22;3534;49.960;8.018;2023-04-24T14:18:35;14.60;99.90
6988;DHT22;3534;49.960;8.018;2023-04-24T14:21:02;14.50;99.90
6988;DHT22;3534;49.960;8.018;2023-04-24T14:23:30;14.40;99.90
6988;DHT22;3534;49.960;8.018;2023-04-24T14:25:57;14.50;99.90
6988;DHT22;3534;49.960;8.018;2023-04-24T14:28:24;14.40;99.90
6988;DHT22;3534;49.960;8.018;2023-04-24T14:30:51;14.50;99.90
6988;DHT22;3534;49.960;8.018;2023-04-24T14:33:18;14.50;99.90
6988;DHT22;3534;49.960;8.018;2023-04-24T14:35:46;14.50;99.90
6988;DHT22;3534;49.960;8.018;2023-04-24T14:38:13;14.60;99.90
6988;DHT22;3534;49.960;8.018;2023-04-24T14:40:42;14.60;99.90
6988;DHT22;3534;49.960;8.018;2023-04-24T14:43:08;14.70;99.90
6988;DHT22;3534;49.960;8.018;2023-04-24T14:45:36;14.70;99.90
6988;DHT22;3534;49.960;8.018;2023-04-24T14:48:03;14.80;99.90
6988;DHT22;3534;49.960;8.018;2023-04-24T14:50:30;14.80;99.90
6988;DHT22;3534;49.960;8.018;2023-04-24T14:52:57;14.70;99.90
6988;DHT22;3534;49.960;8.018;2023-04-24T14:55:23;14.60;99.90
6988;DHT22;3534;49.960;8.018;2023-04-24T14:57:52;14.60;99.90
6988;DHT22;3534;49.960;8.018;2023-04-24T15:00:20;14.70;99.90
6988;DHT22;3534;49.960;8.018;2023-04-24T15:02:48;14.90;99.90
6988;DHT22;3534;49.960;8.018;2023-04-24T15:05:15;14.90;99.90
6988;DHT22;3534;49.960;8.018;2023-04-24T15:07:42;15.00;99.90
6988;DHT22;3534;49.960;8.018;2023-04-24T15:10:09;15.20;99.90
6988;DHT22;3534;49.960;8.018;2023-04-24T15:12:36;15.40;99.90
6988;DHT22;3534;49.960;8.018;2023-04-24T15:15:05;15.40;99.90
6988;DHT22;3534;49.960;8.018;2023-04-24T15:17:32;15.20;99.90
6988;DHT22;3534;49.960;8.018;2023-04-24T15:19:59;14.90;99.90
6988;DHT22;3534;49.960;8.018;2023-04-24T15:22:27;14.80;99.90
6988;DHT22;3534;49.960;8.018;2023-04-24T15:24:53;14.80;99.90
6988;DHT22;3534;49.960;8.018;2023-04-24T15:27:21;14.80;99.90
6988;DHT22;3534;49.960;8.018;2023-04-24T15:29:48;14.80;99.90
6988;DHT22;3534;49.960;8.018;2023-04-24T15:32:16;14.80;99.90
6988;DHT22;3534;49.960;8.018;2023-04-24T15:34:42;14.80;99.90
6988;DHT22;3534;49.960;8.018;2023-04-24T15:37:09;14.80;99.90
6988;DHT22;3534;49.960;8.018;2023-04-24T15:39:36;14.80;99.90
6988;DHT22;3534;49.960;8.018;2023-04-24T15:42:03;14.80;99.90
6988;DHT22;3534;49.960;8.018;2023-04-24T15:44:30;14.80;99.90
6988;DHT22;3534;49.960;8.018;2023-04-24T15:47:00;14.70;99.90
6988;DHT22;3534;49.960;8.018;2023-04-24T15:49:28;14.70;99.90
6988;DHT22;3534;49.960;8.018;2023-04-24T15:51:55;14.50;99.90
6988;DHT22;3534;49.960;8.018;2023-04-24T15:54:21;14.40;99.90
6988;DHT22;3534;49.960;8.018;2023-04-24T15:56:49;14.50;99.90
6988;DHT22;3534;49.960;8.018;2023-04-24T15:59:16;14.80;99.90
6988;DHT22;3534;49.960;8.018;2023-04-24T16:01:43;15.20;99.90
6988;DHT22;3534;49.960;8.018;2023-04-24T16:04:10;15.60;99.90